NCAR-RAP Real-Time Weather Data

Output produced by METARs form (12 August 2020  18:36 UTC)
found at http://weather.rap.ucar.edu/surface/
 
KPHX 121751Z 28008KT 10SM FEW095 FEW200 38/14 A2988 RMK AO2 SLP094 T03830144 10389 20317 50001
KPHX 121651Z 32005KT 10SM FEW090 FEW200 37/14 A2989 RMK AO2 SLP098 T03720144
KPHX 121551Z 00000KT 10SM FEW200 37/15 A2988 RMK AO2 SLP097 T03670150
KPHX 121451Z 00000KT 10SM FEW150 FEW200 36/14 A2987 RMK AO2 SLP093 T03560144 51013
KPHX 121351Z 00000KT 10SM FEW150 FEW200 34/14 A2987 RMK AO2 SLP091 T03390144
KPHX 121251Z 14005KT 10SM SCT150 32/15 A2986 RMK AO2 SLP087 T03220150
KPHX 121151Z 07004KT 10SM FEW150 33/15 A2984 RMK AO2 SLP080 T03280150 10356 20322 52003
KPHX 121051Z 00000KT 10SM CLR 32/16 A2983 RMK AO2 SLP078 T03220156
KPHX 120951Z 23004KT 10SM CLR 32/16 A2983 RMK AO2 SLP079 T03220156
KPHX 120851Z 05004KT 10SM FEW250 34/15 A2983 RMK AO2 SLP076 T03390150 50004
KPHX 120751Z 08006KT 10SM SCT200 33/15 A2983 RMK AO2 SLP079 T03330150
KPHX 120651Z 12009KT 10SM SCT200 33/16 A2982 RMK AO2 SLP076 T03330156 404280317
KPHX 120551Z 08006KT 10SM SCT150 SCT250 36/13 A2981 RMK AO2 SLP072 T03560133 10428 20350 51018
KPHX 120451Z VRB06KT 10SM FEW130 SCT200 SCT250 35/15 A2981 RMK AO2 SLP072 T03500150
KPHX 120351Z 20011KT 10SM FEW090 FEW130 SCT200 SCT250 37/15 A2978 RMK AO2 WSHFT 0308 SLP062 FRQ LTGCGIC DSNT S CB DSNT S T03670150
KPHX 120328Z 20013KT 10SM FEW090 FEW130 SCT200 SCT250 37/16 A2978 RMK AO2 WSHFT 0308 OCNL LTGIC DSNT S CB DSNT S T03720156
KPHX 120251Z 24008KT 10SM FEW090 FEW130 SCT200 SCT250 40/12 A2976 RMK AO2 SLP053 OCNL LTGIC DSNT S CB DSNT S T04000122 53006
KPHX 120151Z 26011KT 10SM FEW090 FEW130 SCT250 42/11 A2974 RMK AO2 SLP045 CB DSNT S T04170106
KPHX 120051Z 31010KT 10SM FEW110 FEW250 42/11 A2973 RMK AO2 SLP045 CB DSNT S T04220106
KPHX 112351Z 30009G17KT 10SM FEW110 FEW210 42/11 A2974 RMK AO2 SLP047 T04220106 10428 20372 56027
KPHX 112251Z 30012G16KT 10SM FEW110 43/12 A2976 RMK AO2 SLP052 T04280117
KPHX 112151Z VRB04KT 10SM FEW110 41/12 A2979 RMK AO2 SLP063 T04110122
KPHX 112051Z 22007KT 10SM FEW110 42/12 A2982 RMK AO2 SLP074 T04170122 56023
KPHX 111951Z VRB03KT 10SM FEW110 40/13 A2984 RMK AO2 SLP082 T04000128
KPHX 111851Z 00000KT 10SM FEW100 FEW160 FEW180 38/13 A2987 RMK AO2 SLP090 T03830128
KPHX 111751Z 05004KT 10SM FEW160 FEW180 38/11 A2989 RMK AO2 SLP098 T03830111 10383 20317 58001
KPHX 111651Z 08004KT 10SM FEW160 FEW180 37/09 A2990 RMK AO2 SLP102 T03670094
KPHX 111551Z 05005KT 10SM FEW160 FEW180 34/11 A2990 RMK AO2 SLP101 T03440106
KPHX 111451Z 07004KT 10SM SCT160 SCT180 34/11 A2989 RMK AO2 SLP099 T03390111 51024
KPHX 111351Z 00000KT 10SM SCT160 33/12 A2987 RMK AO2 SLP092 T03280117
KPHX 111251Z 00000KT 10SM BKN160 32/10 A2985 RMK AO2 SLP086 T03170100
KPHX 111151Z 31006KT 10SM BKN180 33/09 A2982 RMK AO2 SLP074 T03330089 10378 20333 53006
KPHX 111051Z 32008KT 10SM SCT200 33/08 A2980 RMK AO2 SLP069 T03330083
KPHX 110951Z 30008KT 10SM FEW200 35/09 A2980 RMK AO2 SLP069 T03500089
KPHX 110851Z 27010KT 10SM FEW230 36/08 A2980 RMK AO2 SLP066 T03610083 50002
KPHX 110751Z 25006KT 10SM FEW230 36/08 A2981 RMK AO2 SLP071 T03560078
KPHX 110651Z 31006KT 10SM CLR 37/05 A2981 RMK AO2 SLP071 T03720050 404390289
KPHX 110551Z 26005KT 10SM CLR 37/04 A2979 RMK AO2 SLP065 T03720044 10439 20361 51012
KPHX 110451Z 22006KT 10SM CLR 37/05 A2979 RMK AO2 SLP063 T03670050
KPHX 110351Z 25006KT 10SM FEW010 FEW100 39/03 A2978 RMK AO2 SLP060 FU FEW010 DSNT NE T03940033
KPHX 110251Z 27010KT 10SM FEW010 FEW120 42/03 A2976 RMK AO2 SLP053 FU FEW010 DSNT NE-E T04170033 55005
KPHX 110151Z 26010KT 10SM FEW010 FEW120 42/03 A2975 RMK AO2 SLP051 FU FEW010 DSNT NE-E T04220033
KPHX 110051Z 30012KT 10SM FEW010 FEW120 43/03 A2975 RMK AO2 SLP052 FU FEW010 DSNT NE T04280033
KPHX 102351Z 28011KT 10SM FEW010 FEW120 43/03 A2977 RMK AO2 SLP058 FU FEW010 DSNT NE T04330028 10439 20389 56020
KPHX 102251Z 25011G15KT 10SM FEW010 FEW120 44/03 A2979 RMK AO2 SLP063 FU FEW010 DSNT NE T04390028
KPHX 102151Z 27008KT 10SM FEW010 FEW120 FEW160 43/03 A2981 RMK AO2 SLP072 FU FEW010 DSNT NE T04280033
KPHX 102051Z 29007KT 10SM FEW120 FEW150 43/03 A2983 RMK AO2 SLP079 T04280028 58019
KPHX 101951Z 29012G18KT 10SM FEW120 FEW150 42/02 A2986 RMK AO2 SLP087 T04220022
KPHX 101851Z 00000KT 10SM FEW120 FEW150 41/01 A2988 RMK AO2 SLP095 T04060011